sensor_id;sensor_type;location;lat;lon;timestamp;temperature;humidity
43665;DHT22;29263;48.172;11.484;2022-07-29T00:00:59;19.50;99.90
43665;DHT22;29263;48.172;11.484;2022-07-29T00:03:25;19.60;99.90
43665;DHT22;29263;48.172;11.484;2022-07-29T00:05:50;19.50;99.90
43665;DHT22;29263;48.172;11.484;2022-07-29T00:08:18;19.50;99.90
43665;DHT22;29263;48.172;11.484;2022-07-29T00:10:44;19.50;99.90
43665;DHT22;29263;48.172;11.484;2022-07-29T00:13:10;19.50;99.90
43665;DHT22;29263;48.172;11.484;2022-07-29T00:15:35;19.40;99.90
43665;DHT22;29263;48.172;11.484;2022-07-29T00:18:01;19.40;99.90
43665;DHT22;29263;48.172;11.484;2022-07-29T00:20:27;19.40;99.90
43665;DHT22;29263;48.172;11.484;2022-07-29T00:22:53;19.40;99.90
43665;DHT22;29263;48.172;11.484;2022-07-29T00:25:19;19.40;99.90
43665;DHT22;29263;48.172;11.484;2022-07-29T00:27:45;19.40;99.90
43665;DHT22;29263;48.172;11.484;2022-07-29T00:30:11;19.40;99.90
43665;DHT22;29263;48.172;11.484;2022-07-29T00:32:37;19.30;99.90
43665;DHT22;29263;48.172;11.484;2022-07-29T00:35:04;19.30;99.90
43665;DHT22;29263;48.172;11.484;2022-07-29T00:37:49;19.20;99.90
43665;DHT22;29263;48.172;11.484;2022-07-29T00:40:15;19.20;99.90
43665;DHT22;29263;48.172;11.484;2022-07-29T00:42:49;19.20;99.90
43665;DHT22;29263;48.172;11.484;2022-07-29T00:45:15;19.20;99.90
43665;DHT22;29263;48.172;11.484;2022-07-29T00:47:41;19.10;99.90
43665;DHT22;29263;48.172;11.484;2022-07-29T00:50:08;19.10;99.90
43665;DHT22;29263;48.172;11.484;2022-07-29T00:52:53;19.00;99.90
43665;DHT22;29263;48.172;11.484;2022-07-29T00:55:19;19.00;99.90
43665;DHT22;29263;48.172;11.484;2022-07-29T00:57:46;19.00;99.90
43665;DHT22;29263;48.172;11.484;2022-07-29T01:00:19;19.00;99.90
43665;DHT22;29263;48.172;11.484;2022-07-29T01:02:46;19.00;99.90
43665;DHT22;29263;48.172;11.484;2022-07-29T01:05:18;19.00;99.90
43665;DHT22;29263;48.172;11.484;2022-07-29T01:07:46;19.00;99.90
43665;DHT22;29263;48.172;11.484;2022-07-29T01:10:13;19.00;99.90
43665;DHT22;29263;48.172;11.484;2022-07-29T01:12:40;19.00;99.90
43665;DHT22;29263;48.172;11.484;2022-07-29T01:15:08;19.00;99.90
43665;DHT22;29263;48.172;11.484;2022-07-29T01:18:01;19.00;99.90
43665;DHT22;29263;48.172;11.484;2022-07-29T01:23:38;18.90;99.90
43665;DHT22;29263;48.172;11.484;2022-07-29T01:31:10;18.80;99.90
43665;DHT22;29263;48.172;11.484;2022-07-29T01:33:43;18.70;99.90
43665;DHT22;29263;48.172;11.484;2022-07-29T01:39:30;18.50;99.90
43665;DHT22;29263;48.172;11.484;2022-07-29T01:44:33;18.20;99.90
43665;DHT22;29263;48.172;11.484;2022-07-29T01:47:06;18.10;99.90
43665;DHT22;29263;48.172;11.484;2022-07-29T01:49:37;17.90;99.90
43665;DHT22;29263;48.172;11.484;2022-07-29T01:52:13;17.90;99.90
43665;DHT22;29263;48.172;11.484;2022-07-29T01:54:42;17.80;99.90
43665;DHT22;29263;48.172;11.484;2022-07-29T01:57:29;17.80;99.90
43665;DHT22;29263;48.172;11.484;2022-07-29T01:59:57;17.80;99.90
43665;DHT22;29263;48.172;11.484;2022-07-29T02:02:24;17.70;99.90
43665;DHT22;29263;48.172;11.484;2022-07-29T02:04:53;17.70;99.90
43665;DHT22;29263;48.172;11.484;2022-07-29T02:07:21;17.70;99.90
43665;DHT22;29263;48.172;11.484;2022-07-29T02:09:49;17.70;99.90
43665;DHT22;29263;48.172;11.484;2022-07-29T02:12:17;17.70;99.90
43665;DHT22;29263;48.172;11.484;2022-07-29T02:14:52;17.70;99.90
43665;DHT22;29263;48.172;11.484;2022-07-29T02:17:24;17.60;99.90
43665;DHT22;29263;48.172;11.484;2022-07-29T02:19:52;17.60;99.90
43665;DHT22;29263;48.172;11.484;2022-07-29T02:22:19;17.60;99.90
43665;DHT22;29263;48.172;11.484;2022-07-29T02:24:47;17.50;99.90
43665;DHT22;29263;48.172;11.484;2022-07-29T02:27:15;17.50;99.90
43665;DHT22;29263;48.172;11.484;2022-07-29T02:29:41;17.50;99.90
43665;DHT22;29263;48.172;11.484;2022-07-29T02:32:10;17.50;99.90
43665;DHT22;29263;48.172;11.484;2022-07-29T02:34:38;17.50;99.90
43665;DHT22;29263;48.172;11.484;2022-07-29T02:37:05;17.50;99.90
43665;DHT22;29263;48.172;11.484;2022-07-29T02:39:32;17.50;99.90
43665;DHT22;29263;48.172;11.484;2022-07-29T02:42:05;17.50;99.90
43665;DHT22;29263;48.172;11.484;2022-07-29T02:44:32;17.50;99.90
43665;DHT22;29263;48.172;11.484;2022-07-29T02:47:07;17.40;99.90
43665;DHT22;29263;48.172;11.484;2022-07-29T02:49:41;17.40;99.90
43665;DHT22;29263;48.172;11.484;2022-07-29T02:52:26;17.40;99.90
43665;DHT22;29263;48.172;11.484;2022-07-29T02:57:33;17.30;99.90
43665;DHT22;29263;48.172;11.484;2022-07-29T03:00:06;17.30;99.90
43665;DHT22;29263;48.172;11.484;2022-07-29T03:02:40;17.30;99.90
43665;DHT22;29263;48.172;11.484;2022-07-29T03:05:10;17.30;99.90
43665;DHT22;29263;48.172;11.484;2022-07-29T03:07:37;17.20;99.90
43665;DHT22;29263;48.172;11.484;2022-07-29T03:10:04;17.20;99.90
43665;DHT22;29263;48.172;11.484;2022-07-29T03:12:50;17.10;99.90
43665;DHT22;29263;48.172;11.484;2022-07-29T03:15:17;17.00;99.90
43665;DHT22;29263;48.172;11.484;2022-07-29T03:17:43;16.90;99.90
43665;DHT22;29263;48.172;11.484;2022-07-29T03:20:10;16.90;99.90
43665;DHT22;29263;48.172;11.484;2022-07-29T03:22:41;16.80;99.90
43665;DHT22;29263;48.172;11.484;2022-07-29T03:25:12;16.70;99.90
43665;DHT22;29263;48.172;11.484;2022-07-29T03:27:38;16.70;99.90
43665;DHT22;29263;48.172;11.484;2022-07-29T03:30:05;16.70;99.90
43665;DHT22;29263;48.172;11.484;2022-07-29T03:32:33;16.70;99.90
43665;DHT22;29263;48.172;11.484;2022-07-29T03:34:59;16.60;99.90
43665;DHT22;29263;48.172;11.484;2022-07-29T03:37:25;16.50;99.90
43665;DHT22;29263;48.172;11.484;2022-07-29T03:39:52;16.50;99.90
43665;DHT22;29263;48.172;11.484;2022-07-29T03:42:21;16.50;99.90
43665;DHT22;29263;48.172;11.484;2022-07-29T03:44:50;16.40;99.90
43665;DHT22;29263;48.172;11.484;2022-07-29T03:47:20;16.30;99.90
43665;DHT22;29263;48.172;11.484;2022-07-29T03:49:49;16.30;99.90
43665;DHT22;29263;48.172;11.484;2022-07-29T03:52:16;16.30;99.90
43665;DHT22;29263;48.172;11.484;2022-07-29T03:54:42;16.20;99.90
43665;DHT22;29263;48.172;11.484;2022-07-29T03:57:10;16.30;99.90
43665;DHT22;29263;48.172;11.484;2022-07-29T03:59:37;16.30;99.90
43665;DHT22;29263;48.172;11.484;2022-07-29T04:02:08;16.30;99.90
43665;DHT22;29263;48.172;11.484;2022-07-29T04:04:35;16.30;99.90
43665;DHT22;29263;48.172;11.484;2022-07-29T04:07:00;16.30;99.90
43665;DHT22;29263;48.172;11.484;2022-07-29T04:09:29;16.30;99.90
43665;DHT22;29263;48.172;11.484;2022-07-29T04:11:55;16.20;99.90
43665;DHT22;29263;48.172;11.484;2022-07-29T04:14:20;16.20;99.90
43665;DHT22;29263;48.172;11.484;2022-07-29T04:16:47;16.30;99.90
43665;DHT22;29263;48.172;11.484;2022-07-29T04:19:13;16.20;99.90
43665;DHT22;29263;48.172;11.484;2022-07-29T04:21:40;16.20;99.90
43665;DHT22;29263;48.172;11.484;2022-07-29T04:24:08;16.30;99.90
43665;DHT22;29263;48.172;11.484;2022-07-29T04:26:34;16.40;99.90
43665;DHT22;29263;48.172;11.484;2022-07-29T04:29:00;16.40;99.90
43665;DHT22;29263;48.172;11.484;2022-07-29T04:31:26;16.50;99.90
43665;DHT22;29263;48.172;11.484;2022-07-29T04:33:51;16.60;99.90
43665;DHT22;29263;48.172;11.484;2022-07-29T04:36:17;16.70;99.90
43665;DHT22;29263;48.172;11.484;2022-07-29T04:38:43;16.80;99.90
43665;DHT22;29263;48.172;11.484;2022-07-29T04:41:09;16.90;99.90
43665;DHT22;29263;48.172;11.484;2022-07-29T04:43:35;16.90;99.90
43665;DHT22;29263;48.172;11.484;2022-07-29T04:46:03;17.00;99.90
43665;DHT22;29263;48.172;11.484;2022-07-29T04:48:28;17.20;99.90
43665;DHT22;29263;48.172;11.484;2022-07-29T04:51:15;17.30;99.90
43665;DHT22;29263;48.172;11.484;2022-07-29T04:53:42;17.30;99.90
43665;DHT22;29263;48.172;11.484;2022-07-29T04:56:08;17.40;99.90
43665;DHT22;29263;48.172;11.484;2022-07-29T04:58:35;17.40;99.90
43665;DHT22;29263;48.172;11.484;2022-07-29T05:01:02;17.50;99.90
43665;DHT22;29263;48.172;11.484;2022-07-29T05:03:28;17.50;99.90
43665;DHT22;29263;48.172;11.484;2022-07-29T05:05:54;17.60;99.90
43665;DHT22;29263;48.172;11.484;2022-07-29T05:08:20;17.60;99.90
43665;DHT22;29263;48.172;11.484;2022-07-29T05:10:47;17.60;99.90
43665;DHT22;29263;48.172;11.484;2022-07-29T05:13:14;17.60;99.90
43665;DHT22;29263;48.172;11.484;2022-07-29T05:15:41;17.60;99.90
43665;DHT22;29263;48.172;11.484;2022-07-29T05:18:07;17.60;99.90
43665;DHT22;29263;48.172;11.484;2022-07-29T05:20:32;17.70;99.90
43665;DHT22;29263;48.172;11.484;2022-07-29T05:23:01;17.70;99.90
43665;DHT22;29263;48.172;11.484;2022-07-29T05:25:29;17.90;99.90
43665;DHT22;29263;48.172;11.484;2022-07-29T05:27:56;18.00;99.90
43665;DHT22;29263;48.172;11.484;2022-07-29T05:30:23;18.10;99.90
43665;DHT22;29263;48.172;11.484;2022-07-29T05:32:51;18.20;99.90
43665;DHT22;29263;48.172;11.484;2022-07-29T05:35:16;18.30;99.90
43665;DHT22;29263;48.172;11.484;2022-07-29T05:37:42;18.30;99.90
43665;DHT22;29263;48.172;11.484;2022-07-29T05:40:09;18.40;99.90
43665;DHT22;29263;48.172;11.484;2022-07-29T05:42:35;18.50;99.90
43665;DHT22;29263;48.172;11.484;2022-07-29T05:45:02;18.60;99.90
43665;DHT22;29263;48.172;11.484;2022-07-29T05:47:29;18.70;99.90
43665;DHT22;29263;48.172;11.484;2022-07-29T05:49:54;18.70;99.90
43665;DHT22;29263;48.172;11.484;2022-07-29T05:52:21;18.90;99.90
43665;DHT22;29263;48.172;11.484;2022-07-29T05:54:48;19.00;99.90
43665;DHT22;29263;48.172;11.484;2022-07-29T05:57:22;19.10;99.90
43665;DHT22;29263;48.172;11.484;2022-07-29T05:59:49;19.30;99.90
43665;DHT22;29263;48.172;11.484;2022-07-29T06:02:16;19.30;99.90
43665;DHT22;29263;48.172;11.484;2022-07-29T06:04:41;19.40;99.90
43665;DHT22;29263;48.172;11.484;2022-07-29T06:07:07;19.60;99.90
43665;DHT22;29263;48.172;11.484;2022-07-29T06:09:34;19.70;99.90
43665;DHT22;29263;48.172;11.484;2022-07-29T06:12:00;19.90;99.90
43665;DHT22;29263;48.172;11.484;2022-07-29T06:14:25;20.10;99.90
43665;DHT22;29263;48.172;11.484;2022-07-29T06:16:54;20.10;99.90
43665;DHT22;29263;48.172;11.484;2022-07-29T06:19:20;20.20;99.90
43665;DHT22;29263;48.172;11.484;2022-07-29T06:21:47;20.30;99.90
43665;DHT22;29263;48.172;11.484;2022-07-29T06:24:13;20.40;99.90
43665;DHT22;29263;48.172;11.484;2022-07-29T06:26:40;20.50;99.90
43665;DHT22;29263;48.172;11.484;2022-07-29T06:29:08;20.60;99.90
43665;DHT22;29263;48.172;11.484;2022-07-29T06:31:54;20.70;99.90
43665;DHT22;29263;48.172;11.484;2022-07-29T06:34:20;20.70;99.90
43665;DHT22;29263;48.172;11.484;2022-07-29T06:36:46;20.60;99.90
43665;DHT22;29263;48.172;11.484;2022-07-29T06:39:12;20.70;99.90
43665;DHT22;29263;48.172;11.484;2022-07-29T06:41:37;20.90;99.90
43665;DHT22;29263;48.172;11.484;2022-07-29T06:44:03;21.10;99.90
43665;DHT22;29263;48.172;11.484;2022-07-29T06:46:29;21.20;99.90
43665;DHT22;29263;48.172;11.484;2022-07-29T06:48:55;21.40;99.90
43665;DHT22;29263;48.172;11.484;2022-07-29T06:51:21;21.40;99.90
43665;DHT22;29263;48.172;11.484;2022-07-29T06:53:47;21.30;99.90
43665;DHT22;29263;48.172;11.484;2022-07-29T06:56:14;21.30;99.90
43665;DHT22;29263;48.172;11.484;2022-07-29T06:58:40;21.40;99.90
43665;DHT22;29263;48.172;11.484;2022-07-29T07:01:06;21.70;99.90
43665;DHT22;29263;48.172;11.484;2022-07-29T07:03:32;21.80;99.90
43665;DHT22;29263;48.172;11.484;2022-07-29T07:05:58;21.90;99.90
43665;DHT22;29263;48.172;11.484;2022-07-29T07:08:24;22.10;99.90
43665;DHT22;29263;48.172;11.484;2022-07-29T07:10:51;22.30;99.90
43665;DHT22;29263;48.172;11.484;2022-07-29T07:13:18;22.30;99.90
43665;DHT22;29263;48.172;11.484;2022-07-29T07:15:45;22.50;99.90
43665;DHT22;29263;48.172;11.484;2022-07-29T07:18:14;22.40;99.90
43665;DHT22;29263;48.172;11.484;2022-07-29T07:20:40;22.50;99.90
43665;DHT22;29263;48.172;11.484;2022-07-29T07:23:06;22.60;99.90
43665;DHT22;29263;48.172;11.484;2022-07-29T07:25:32;22.80;99.90
43665;DHT22;29263;48.172;11.484;2022-07-29T07:27:57;22.90;99.90
43665;DHT22;29263;48.172;11.484;2022-07-29T07:30:23;23.00;99.90
43665;DHT22;29263;48.172;11.484;2022-07-29T07:32:50;23.00;99.90
43665;DHT22;29263;48.172;11.484;2022-07-29T07:35:16;23.00;99.90
43665;DHT22;29263;48.172;11.484;2022-07-29T07:37:42;23.10;99.90
43665;DHT22;29263;48.172;11.484;2022-07-29T07:40:09;23.20;98.40
43665;DHT22;29263;48.172;11.484;2022-07-29T07:42:38;23.40;97.60
43665;DHT22;29263;48.172;11.484;2022-07-29T07:45:04;23.40;97.90
43665;DHT22;29263;48.172;11.484;2022-07-29T07:47:31;23.60;96.30
43665;DHT22;29263;48.172;11.484;2022-07-29T07:49:57;23.60;96.00
43665;DHT22;29263;48.172;11.484;2022-07-29T07:52:23;23.80;95.40
43665;DHT22;29263;48.172;11.484;2022-07-29T07:54:50;23.80;93.40
43665;DHT22;29263;48.172;11.484;2022-07-29T07:57:16;23.60;91.60
43665;DHT22;29263;48.172;11.484;2022-07-29T07:59:42;23.70;91.60
43665;DHT22;29263;48.172;11.484;2022-07-29T08:02:27;23.60;91.30
43665;DHT22;29263;48.172;11.484;2022-07-29T08:04:53;23.60;90.80
43665;DHT22;29263;48.172;11.484;2022-07-29T08:07:19;23.80;92.70
43665;DHT22;29263;48.172;11.484;2022-07-29T08:09:45;23.90;91.50
43665;DHT22;29263;48.172;11.484;2022-07-29T08:12:11;24.00;89.30
43665;DHT22;29263;48.172;11.484;2022-07-29T08:14:36;24.00;92.30
43665;DHT22;29263;48.172;11.484;2022-07-29T08:17:02;24.00;91.70
43665;DHT22;29263;48.172;11.484;2022-07-29T08:19:28;24.10;90.80
43665;DHT22;29263;48.172;11.484;2022-07-29T08:21:54;24.20;90.90
43665;DHT22;29263;48.172;11.484;2022-07-29T08:24:21;24.30;90.90
43665;DHT22;29263;48.172;11.484;2022-07-29T08:27:05;24.40;89.50
43665;DHT22;29263;48.172;11.484;2022-07-29T08:29:30;24.40;88.40
43665;DHT22;29263;48.172;11.484;2022-07-29T08:31:56;24.60;89.40
43665;DHT22;29263;48.172;11.484;2022-07-29T08:34:22;24.80;88.20
43665;DHT22;29263;48.172;11.484;2022-07-29T08:36:47;24.90;88.00
43665;DHT22;29263;48.172;11.484;2022-07-29T08:39:13;25.20;88.40
43665;DHT22;29263;48.172;11.484;2022-07-29T08:41:39;25.30;85.00
43665;DHT22;29263;48.172;11.484;2022-07-29T08:44:06;25.60;87.60
43665;DHT22;29263;48.172;11.484;2022-07-29T08:46:31;25.80;86.20
43665;DHT22;29263;48.172;11.484;2022-07-29T08:48:57;25.70;79.80
43665;DHT22;29263;48.172;11.484;2022-07-29T08:51:25;25.30;79.80
43665;DHT22;29263;48.172;11.484;2022-07-29T08:53:50;25.30;79.00
43665;DHT22;29263;48.172;11.484;2022-07-29T08:56:36;25.10;80.10
43665;DHT22;29263;48.172;11.484;2022-07-29T08:59:04;24.80;82.50
43665;DHT22;29263;48.172;11.484;2022-07-29T09:01:32;24.80;83.80
43665;DHT22;29263;48.172;11.484;2022-07-29T09:03:59;24.90;81.20
43665;DHT22;29263;48.172;11.484;2022-07-29T09:06:30;25.00;79.70
43665;DHT22;29263;48.172;11.484;2022-07-29T09:08:59;24.90;81.70
43665;DHT22;29263;48.172;11.484;2022-07-29T09:11:27;24.90;83.20
43665;DHT22;29263;48.172;11.484;2022-07-29T09:13:53;25.00;83.00
43665;DHT22;29263;48.172;11.484;2022-07-29T09:16:19;24.90;81.50
43665;DHT22;29263;48.172;11.484;2022-07-29T09:18:46;25.00;82.60
43665;DHT22;29263;48.172;11.484;2022-07-29T09:21:16;24.90;82.90
43665;DHT22;29263;48.172;11.484;2022-07-29T09:24:12;25.20;82.90
43665;DHT22;29263;48.172;11.484;2022-07-29T09:26:42;25.30;79.70
43665;DHT22;29263;48.172;11.484;2022-07-29T09:29:14;25.60;79.90
43665;DHT22;29263;48.172;11.484;2022-07-29T09:31:42;25.80;76.80
43665;DHT22;29263;48.172;11.484;2022-07-29T09:34:09;25.90;77.50
43665;DHT22;29263;48.172;11.484;2022-07-29T09:36:40;26.10;75.80
43665;DHT22;29263;48.172;11.484;2022-07-29T09:39:09;25.90;77.80
43665;DHT22;29263;48.172;11.484;2022-07-29T09:41:51;25.60;76.40
43665;DHT22;29263;48.172;11.484;2022-07-29T09:44:24;25.30;77.80
43665;DHT22;29263;48.172;11.484;2022-07-29T09:47:00;24.90;82.80
43665;DHT22;29263;48.172;11.484;2022-07-29T09:49:33;24.80;81.30
43665;DHT22;29263;48.172;11.484;2022-07-29T09:52:06;24.70;77.70
43665;DHT22;29263;48.172;11.484;2022-07-29T09:54:34;24.60;81.10
43665;DHT22;29263;48.172;11.484;2022-07-29T09:57:08;24.80;84.00
43665;DHT22;29263;48.172;11.484;2022-07-29T09:59:38;24.70;79.50
43665;DHT22;29263;48.172;11.484;2022-07-29T10:02:14;24.70;80.80
43665;DHT22;29263;48.172;11.484;2022-07-29T10:04:41;24.80;80.20
43665;DHT22;29263;48.172;11.484;2022-07-29T10:07:07;25.10;80.50
43665;DHT22;29263;48.172;11.484;2022-07-29T10:09:34;25.40;78.20
43665;DHT22;29263;48.172;11.484;2022-07-29T10:12:05;25.30;80.00
43665;DHT22;29263;48.172;11.484;2022-07-29T10:14:35;25.30;79.80
43665;DHT22;29263;48.172;11.484;2022-07-29T10:17:02;25.50;78.10
43665;DHT22;29263;48.172;11.484;2022-07-29T10:19:31;25.60;77.80
43665;DHT22;29263;48.172;11.484;2022-07-29T10:22:07;25.50;78.40
43665;DHT22;29263;48.172;11.484;2022-07-29T10:24:35;25.50;78.00
43665;DHT22;29263;48.172;11.484;2022-07-29T10:27:08;25.80;74.60
43665;DHT22;29263;48.172;11.484;2022-07-29T10:29:34;25.70;74.00
43665;DHT22;29263;48.172;11.484;2022-07-29T10:32:27;25.40;75.00
43665;DHT22;29263;48.172;11.484;2022-07-29T10:35:01;25.50;77.20
43665;DHT22;29263;48.172;11.484;2022-07-29T10:43:46;26.30;75.10
43665;DHT22;29263;48.172;11.484;2022-07-29T10:46:14;27.10;73.00
43665;DHT22;29263;48.172;11.484;2022-07-29T10:49:08;28.60;70.30
43665;DHT22;29263;48.172;11.484;2022-07-29T10:51:54;30.80;60.80
43665;DHT22;29263;48.172;11.484;2022-07-29T10:54:44;33.20;54.70
43665;DHT22;29263;48.172;11.484;2022-07-29T10:57:29;32.20;53.50
43665;DHT22;29263;48.172;11.484;2022-07-29T11:05:12;32.30;49.40
43665;DHT22;29263;48.172;11.484;2022-07-29T11:07:40;31.40;51.40
43665;DHT22;29263;48.172;11.484;2022-07-29T11:10:24;32.40;52.30
43665;DHT22;29263;48.172;11.484;2022-07-29T11:12:51;34.00;49.70
43665;DHT22;29263;48.172;11.484;2022-07-29T11:15:19;33.90;46.90
43665;DHT22;29263;48.172;11.484;2022-07-29T11:20:44;34.00;45.30
43665;DHT22;29263;48.172;11.484;2022-07-29T11:23:29;33.40;47.40
43665;DHT22;29263;48.172;11.484;2022-07-29T11:31:40;30.00;52.20
43665;DHT22;29263;48.172;11.484;2022-07-29T11:39:36;33.20;42.90
43665;DHT22;29263;48.172;11.484;2022-07-29T11:45:05;32.00;43.20
43665;DHT22;29263;48.172;11.484;2022-07-29T11:47:33;31.20;46.20
43665;DHT22;29263;48.172;11.484;2022-07-29T11:50:33;30.20;47.00
43665;DHT22;29263;48.172;11.484;2022-07-29T11:53:00;29.50;47.10
43665;DHT22;29263;48.172;11.484;2022-07-29T11:55:45;29.00;49.10
43665;DHT22;29263;48.172;11.484;2022-07-29T11:58:12;28.50;51.70
43665;DHT22;29263;48.172;11.484;2022-07-29T12:00:40;28.10;54.70
43665;DHT22;29263;48.172;11.484;2022-07-29T12:03:10;27.80;52.70
43665;DHT22;29263;48.172;11.484;2022-07-29T12:05:45;27.60;53.60
43665;DHT22;29263;48.172;11.484;2022-07-29T12:08:20;27.40;54.90
43665;DHT22;29263;48.172;11.484;2022-07-29T12:10:48;27.20;57.50
43665;DHT22;29263;48.172;11.484;2022-07-29T12:13:17;27.30;55.70
43665;DHT22;29263;48.172;11.484;2022-07-29T12:15:53;27.30;57.00
43665;DHT22;29263;48.172;11.484;2022-07-29T12:18:19;27.10;57.70
43665;DHT22;29263;48.172;11.484;2022-07-29T12:20:47;27.10;57.60
43665;DHT22;29263;48.172;11.484;2022-07-29T12:23:33;27.20;56.30
43665;DHT22;29263;48.172;11.484;2022-07-29T12:25:59;27.40;58.10
43665;DHT22;29263;48.172;11.484;2022-07-29T12:28:25;27.50;57.40
43665;DHT22;29263;48.172;11.484;2022-07-29T12:30:51;27.30;58.10
43665;DHT22;29263;48.172;11.484;2022-07-29T12:33:23;27.10;59.10
43665;DHT22;29263;48.172;11.484;2022-07-29T12:35:55;26.90;56.00
43665;DHT22;29263;48.172;11.484;2022-07-29T12:38:21;26.90;55.90
43665;DHT22;29263;48.172;11.484;2022-07-29T12:40:49;27.20;58.10
43665;DHT22;29263;48.172;11.484;2022-07-29T12:43:17;26.80;55.50
43665;DHT22;29263;48.172;11.484;2022-07-29T12:45:48;26.70;58.30
43665;DHT22;29263;48.172;11.484;2022-07-29T12:48:16;26.60;55.90
43665;DHT22;29263;48.172;11.484;2022-07-29T12:50:56;26.30;59.90
43665;DHT22;29263;48.172;11.484;2022-07-29T12:53:23;26.00;56.90
43665;DHT22;29263;48.172;11.484;2022-07-29T12:55:51;26.00;56.90
43665;DHT22;29263;48.172;11.484;2022-07-29T12:58:35;25.80;57.60
43665;DHT22;29263;48.172;11.484;2022-07-29T13:01:08;25.70;58.70
43665;DHT22;29263;48.172;11.484;2022-07-29T13:03:52;25.50;58.20
43665;DHT22;29263;48.172;11.484;2022-07-29T13:06:42;25.50;59.50
43665;DHT22;29263;48.172;11.484;2022-07-29T13:09:15;25.40;59.90
43665;DHT22;29263;48.172;11.484;2022-07-29T13:11:49;25.30;59.50
43665;DHT22;29263;48.172;11.484;2022-07-29T13:14:42;25.20;61.20
43665;DHT22;29263;48.172;11.484;2022-07-29T13:17:19;25.20;61.60
43665;DHT22;29263;48.172;11.484;2022-07-29T13:20:04;25.00;62.30
43665;DHT22;29263;48.172;11.484;2022-07-29T13:22:30;24.70;64.50
43665;DHT22;29263;48.172;11.484;2022-07-29T13:24:58;24.60;63.80
43665;DHT22;29263;48.172;11.484;2022-07-29T13:27:29;24.50;68.80
43665;DHT22;29263;48.172;11.484;2022-07-29T13:29:56;24.50;66.30
43665;DHT22;29263;48.172;11.484;2022-07-29T13:32:24;24.50;67.80
43665;DHT22;29263;48.172;11.484;2022-07-29T13:34:51;24.50;68.40
43665;DHT22;29263;48.172;11.484;2022-07-29T13:37:17;24.50;67.70
43665;DHT22;29263;48.172;11.484;2022-07-29T13:39:43;24.50;66.30
43665;DHT22;29263;48.172;11.484;2022-07-29T13:42:09;24.50;66.30
43665;DHT22;29263;48.172;11.484;2022-07-29T13:44:35;24.50;68.70
43665;DHT22;29263;48.172;11.484;2022-07-29T13:47:01;24.60;64.00
43665;DHT22;29263;48.172;11.484;2022-07-29T13:49:27;24.60;64.60
43665;DHT22;29263;48.172;11.484;2022-07-29T13:51:53;24.70;66.90
43665;DHT22;29263;48.172;11.484;2022-07-29T13:54:19;24.70;64.50
43665;DHT22;29263;48.172;11.484;2022-07-29T13:56:45;24.60;64.20
43665;DHT22;29263;48.172;11.484;2022-07-29T13:59:11;24.60;63.80
43665;DHT22;29263;48.172;11.484;2022-07-29T14:01:40;24.70;63.80
43665;DHT22;29263;48.172;11.484;2022-07-29T14:04:08;24.80;64.00
43665;DHT22;29263;48.172;11.484;2022-07-29T14:06:33;24.90;62.90
43665;DHT22;29263;48.172;11.484;2022-07-29T14:08:59;25.00;65.80
43665;DHT22;29263;48.172;11.484;2022-07-29T14:11:25;25.00;65.90
43665;DHT22;29263;48.172;11.484;2022-07-29T14:13:51;25.00;65.50
43665;DHT22;29263;48.172;11.484;2022-07-29T14:16:16;25.00;66.60
43665;DHT22;29263;48.172;11.484;2022-07-29T14:18:42;24.90;65.40
43665;DHT22;29263;48.172;11.484;2022-07-29T14:21:28;24.90;64.60
43665;DHT22;29263;48.172;11.484;2022-07-29T14:23:54;25.00;64.10
43665;DHT22;29263;48.172;11.484;2022-07-29T14:26:20;25.00;63.50
43665;DHT22;29263;48.172;11.484;2022-07-29T14:28:50;24.90;64.50
43665;DHT22;29263;48.172;11.484;2022-07-29T14:31:15;24.90;64.60
43665;DHT22;29263;48.172;11.484;2022-07-29T14:33:41;24.70;65.00
43665;DHT22;29263;48.172;11.484;2022-07-29T14:36:08;24.70;64.00
43665;DHT22;29263;48.172;11.484;2022-07-29T14:38:36;24.70;64.20
43665;DHT22;29263;48.172;11.484;2022-07-29T14:41:04;24.70;65.30
43665;DHT22;29263;48.172;11.484;2022-07-29T14:43:29;24.80;65.60
43665;DHT22;29263;48.172;11.484;2022-07-29T14:45:55;24.80;69.70
43665;DHT22;29263;48.172;11.484;2022-07-29T14:48:21;24.80;67.60
43665;DHT22;29263;48.172;11.484;2022-07-29T14:50:47;24.90;66.30
43665;DHT22;29263;48.172;11.484;2022-07-29T14:53:12;24.70;66.10
43665;DHT22;29263;48.172;11.484;2022-07-29T14:55:39;24.60;68.00
43665;DHT22;29263;48.172;11.484;2022-07-29T14:58:06;24.50;68.40
43665;DHT22;29263;48.172;11.484;2022-07-29T15:00:32;24.40;69.40
43665;DHT22;29263;48.172;11.484;2022-07-29T15:03:00;24.40;67.80
43665;DHT22;29263;48.172;11.484;2022-07-29T15:05:27;24.40;68.70
43665;DHT22;29263;48.172;11.484;2022-07-29T15:07:53;24.30;70.10
43665;DHT22;29263;48.172;11.484;2022-07-29T15:10:19;24.30;69.20
43665;DHT22;29263;48.172;11.484;2022-07-29T15:12:44;24.20;71.30
43665;DHT22;29263;48.172;11.484;2022-07-29T15:15:10;24.10;73.00
43665;DHT22;29263;48.172;11.484;2022-07-29T15:17:36;24.00;72.40
43665;DHT22;29263;48.172;11.484;2022-07-29T15:20:02;23.90;73.50
43665;DHT22;29263;48.172;11.484;2022-07-29T15:22:28;23.80;73.30
43665;DHT22;29263;48.172;11.484;2022-07-29T15:24:53;23.70;73.90
43665;DHT22;29263;48.172;11.484;2022-07-29T15:27:19;23.70;75.30
43665;DHT22;29263;48.172;11.484;2022-07-29T15:29:45;23.60;75.80
43665;DHT22;29263;48.172;11.484;2022-07-29T15:32:11;23.50;76.80
43665;DHT22;29263;48.172;11.484;2022-07-29T15:34:37;23.60;79.40
43665;DHT22;29263;48.172;11.484;2022-07-29T15:37:04;23.60;77.10
43665;DHT22;29263;48.172;11.484;2022-07-29T15:39:32;23.50;77.80
43665;DHT22;29263;48.172;11.484;2022-07-29T15:41:58;23.60;78.90
43665;DHT22;29263;48.172;11.484;2022-07-29T15:44:27;23.60;78.40
43665;DHT22;29263;48.172;11.484;2022-07-29T15:46:53;23.60;77.80
43665;DHT22;29263;48.172;11.484;2022-07-29T15:49:38;23.60;79.70
43665;DHT22;29263;48.172;11.484;2022-07-29T15:52:08;23.60;80.00
43665;DHT22;29263;48.172;11.484;2022-07-29T15:54:36;23.60;80.30
43665;DHT22;29263;48.172;11.484;2022-07-29T15:57:04;23.60;79.00
43665;DHT22;29263;48.172;11.484;2022-07-29T15:59:30;23.60;80.10
43665;DHT22;29263;48.172;11.484;2022-07-29T16:01:56;23.60;83.10
43665;DHT22;29263;48.172;11.484;2022-07-29T16:04:22;23.50;83.10
43665;DHT22;29263;48.172;11.484;2022-07-29T16:06:48;23.50;83.10
43665;DHT22;29263;48.172;11.484;2022-07-29T16:09:15;23.50;81.50
43665;DHT22;29263;48.172;11.484;2022-07-29T16:11:42;23.50;85.50